sensor_id;sensor_type;location;lat;lon;timestamp;temperature;humidity
20829;DHT22;10575;50.124;8.582;2023-04-10T00:01:19;7.60;99.90
20829;DHT22;10575;50.124;8.582;2023-04-10T00:03:44;7.60;99.90
20829;DHT22;10575;50.124;8.582;2023-04-10T00:06:10;7.60;99.90
20829;DHT22;10575;50.124;8.582;2023-04-10T00:08:36;7.60;99.90
20829;DHT22;10575;50.124;8.582;2023-04-10T00:11:02;7.60;99.90
20829;DHT22;10575;50.124;8.582;2023-04-10T00:13:28;7.70;99.90
20829;DHT22;10575;50.124;8.582;2023-04-10T00:15:53;7.70;99.90
20829;DHT22;10575;50.124;8.582;2023-04-10T00:18:19;7.60;99.90
20829;DHT22;10575;50.124;8.582;2023-04-10T00:20:45;7.70;99.90
20829;DHT22;10575;50.124;8.582;2023-04-10T00:23:10;7.60;99.90
20829;DHT22;10575;50.124;8.582;2023-04-10T00:25:36;7.50;99.90
20829;DHT22;10575;50.124;8.582;2023-04-10T00:28:01;7.50;99.90
20829;DHT22;10575;50.124;8.582;2023-04-10T00:30:27;7.40;99.90
20829;DHT22;10575;50.124;8.582;2023-04-10T00:32:53;7.40;99.90
20829;DHT22;10575;50.124;8.582;2023-04-10T00:35:18;7.40;99.90
20829;DHT22;10575;50.124;8.582;2023-04-10T00:37:44;7.40;99.90
20829;DHT22;10575;50.124;8.582;2023-04-10T00:40:10;7.30;99.90
20829;DHT22;10575;50.124;8.582;2023-04-10T00:42:35;7.30;99.90
20829;DHT22;10575;50.124;8.582;2023-04-10T00:45:01;7.30;99.90
20829;DHT22;10575;50.124;8.582;2023-04-10T00:47:27;7.40;99.90
20829;DHT22;10575;50.124;8.582;2023-04-10T00:49:53;7.50;99.90
20829;DHT22;10575;50.124;8.582;2023-04-10T00:52:18;7.50;99.90
20829;DHT22;10575;50.124;8.582;2023-04-10T00:54:44;7.40;99.90
20829;DHT22;10575;50.124;8.582;2023-04-10T00:57:10;7.40;99.90
20829;DHT22;10575;50.124;8.582;2023-04-10T00:59:36;7.30;99.90
20829;DHT22;10575;50.124;8.582;2023-04-10T01:02:02;7.30;99.90
20829;DHT22;10575;50.124;8.582;2023-04-10T01:04:28;7.20;99.90
20829;DHT22;10575;50.124;8.582;2023-04-10T01:09:46;7.20;99.90
20829;DHT22;10575;50.124;8.582;2023-04-10T01:15:12;7.10;99.90
20829;DHT22;10575;50.124;8.582;2023-04-10T01:20:35;7.30;99.90
20829;DHT22;10575;50.124;8.582;2023-04-10T01:23:24;7.30;99.90
20829;DHT22;10575;50.124;8.582;2023-04-10T01:26:00;7.30;99.90
20829;DHT22;10575;50.124;8.582;2023-04-10T01:28:52;7.20;99.90
20829;DHT22;10575;50.124;8.582;2023-04-10T01:31:45;7.00;99.90
20829;DHT22;10575;50.124;8.582;2023-04-10T01:34:22;7.10;99.90
20829;DHT22;10575;50.124;8.582;2023-04-10T01:36:52;7.20;99.90
20829;DHT22;10575;50.124;8.582;2023-04-10T01:39:21;7.30;99.90
20829;DHT22;10575;50.124;8.582;2023-04-10T01:41:51;7.40;99.90
20829;DHT22;10575;50.124;8.582;2023-04-10T01:44:22;7.50;99.90
20829;DHT22;10575;50.124;8.582;2023-04-10T01:46:52;7.50;99.90
20829;DHT22;10575;50.124;8.582;2023-04-10T01:49:18;7.40;99.90
20829;DHT22;10575;50.124;8.582;2023-04-10T01:51:45;7.40;99.90
20829;DHT22;10575;50.124;8.582;2023-04-10T01:54:12;7.50;99.90
20829;DHT22;10575;50.124;8.582;2023-04-10T01:56:38;7.50;99.90
20829;DHT22;10575;50.124;8.582;2023-04-10T01:59:05;7.50;99.90
20829;DHT22;10575;50.124;8.582;2023-04-10T02:01:30;7.50;99.90
20829;DHT22;10575;50.124;8.582;2023-04-10T02:03:57;7.40;99.90
20829;DHT22;10575;50.124;8.582;2023-04-10T02:06:28;7.40;99.90
20829;DHT22;10575;50.124;8.582;2023-04-10T02:09:16;7.40;99.90
20829;DHT22;10575;50.124;8.582;2023-04-10T02:11:46;7.30;99.90
20829;DHT22;10575;50.124;8.582;2023-04-10T02:14:16;7.20;99.90
20829;DHT22;10575;50.124;8.582;2023-04-10T02:16:42;7.10;99.90
20829;DHT22;10575;50.124;8.582;2023-04-10T02:19:10;7.00;99.90
20829;DHT22;10575;50.124;8.582;2023-04-10T02:21:37;6.80;99.90
20829;DHT22;10575;50.124;8.582;2023-04-10T02:24:05;6.60;99.90
20829;DHT22;10575;50.124;8.582;2023-04-10T02:26:51;6.60;99.90
20829;DHT22;10575;50.124;8.582;2023-04-10T02:29:17;6.40;99.90
20829;DHT22;10575;50.124;8.582;2023-04-10T02:31:44;6.30;99.90
20829;DHT22;10575;50.124;8.582;2023-04-10T02:34:11;6.20;99.90
20829;DHT22;10575;50.124;8.582;2023-04-10T02:36:37;6.00;99.90
20829;DHT22;10575;50.124;8.582;2023-04-10T02:39:04;6.00;99.90
20829;DHT22;10575;50.124;8.582;2023-04-10T02:41:30;5.80;99.90
20829;DHT22;10575;50.124;8.582;2023-04-10T02:43:56;5.80;99.90
20829;DHT22;10575;50.124;8.582;2023-04-10T02:46:21;5.70;99.90
20829;DHT22;10575;50.124;8.582;2023-04-10T02:48:47;5.70;99.90
20829;DHT22;10575;50.124;8.582;2023-04-10T02:51:13;5.60;99.90
20829;DHT22;10575;50.124;8.582;2023-04-10T02:53:38;5.60;99.90
20829;DHT22;10575;50.124;8.582;2023-04-10T02:56:04;5.60;99.90
20829;DHT22;10575;50.124;8.582;2023-04-10T02:58:33;5.60;99.90
20829;DHT22;10575;50.124;8.582;2023-04-10T03:01:00;5.60;99.90
20829;DHT22;10575;50.124;8.582;2023-04-10T03:03:26;5.60;99.90
20829;DHT22;10575;50.124;8.582;2023-04-10T03:05:52;5.50;99.90
20829;DHT22;10575;50.124;8.582;2023-04-10T03:08:17;5.60;99.90
20829;DHT22;10575;50.124;8.582;2023-04-10T03:10:44;5.60;99.90
20829;DHT22;10575;50.124;8.582;2023-04-10T03:13:10;5.60;99.90
20829;DHT22;10575;50.124;8.582;2023-04-10T03:15:36;5.60;99.90
20829;DHT22;10575;50.124;8.582;2023-04-10T03:18:05;5.60;99.90
20829;DHT22;10575;50.124;8.582;2023-04-10T03:20:32;5.70;99.90
20829;DHT22;10575;50.124;8.582;2023-04-10T03:22:58;5.70;99.90
20829;DHT22;10575;50.124;8.582;2023-04-10T03:25:24;5.70;99.90
20829;DHT22;10575;50.124;8.582;2023-04-10T03:27:50;5.70;99.90
20829;DHT22;10575;50.124;8.582;2023-04-10T03:30:15;5.70;99.90
20829;DHT22;10575;50.124;8.582;2023-04-10T03:32:41;5.80;99.90
20829;DHT22;10575;50.124;8.582;2023-04-10T03:35:08;5.80;99.90
20829;DHT22;10575;50.124;8.582;2023-04-10T03:37:34;5.70;99.90
20829;DHT22;10575;50.124;8.582;2023-04-10T03:39:59;5.70;99.90
20829;DHT22;10575;50.124;8.582;2023-04-10T03:42:25;5.70;99.90
20829;DHT22;10575;50.124;8.582;2023-04-10T03:44:51;5.70;99.90
20829;DHT22;10575;50.124;8.582;2023-04-10T03:47:16;5.70;99.90
20829;DHT22;10575;50.124;8.582;2023-04-10T03:49:42;5.70;99.90
20829;DHT22;10575;50.124;8.582;2023-04-10T03:52:07;5.80;99.90
20829;DHT22;10575;50.124;8.582;2023-04-10T03:54:33;5.80;99.90
20829;DHT22;10575;50.124;8.582;2023-04-10T03:56:59;5.80;99.90
20829;DHT22;10575;50.124;8.582;2023-04-10T03:59:25;5.80;99.90
20829;DHT22;10575;50.124;8.582;2023-04-10T04:01:51;5.80;99.90
20829;DHT22;10575;50.124;8.582;2023-04-10T04:04:17;5.80;99.90
20829;DHT22;10575;50.124;8.582;2023-04-10T04:06:43;5.80;99.90
20829;DHT22;10575;50.124;8.582;2023-04-10T04:09:08;5.80;99.90
20829;DHT22;10575;50.124;8.582;2023-04-10T04:11:34;5.80;99.90
20829;DHT22;10575;50.124;8.582;2023-04-10T04:13:59;5.80;99.90
20829;DHT22;10575;50.124;8.582;2023-04-10T04:16:25;5.80;99.90
20829;DHT22;10575;50.124;8.582;2023-04-10T04:18:51;5.80;99.90
20829;DHT22;10575;50.124;8.582;2023-04-10T04:21:17;5.70;99.90
20829;DHT22;10575;50.124;8.582;2023-04-10T04:23:42;5.60;99.90
20829;DHT22;10575;50.124;8.582;2023-04-10T04:26:08;5.60;99.90
20829;DHT22;10575;50.124;8.582;2023-04-10T04:28:34;5.60;99.90
20829;DHT22;10575;50.124;8.582;2023-04-10T04:30:59;5.50;99.90
20829;DHT22;10575;50.124;8.582;2023-04-10T04:33:25;5.50;99.90
20829;DHT22;10575;50.124;8.582;2023-04-10T04:35:51;5.50;99.90
20829;DHT22;10575;50.124;8.582;2023-04-10T04:38:16;5.50;99.90
20829;DHT22;10575;50.124;8.582;2023-04-10T04:40:44;5.50;99.90
20829;DHT22;10575;50.124;8.582;2023-04-10T04:43:10;5.50;99.90
20829;DHT22;10575;50.124;8.582;2023-04-10T04:45:35;5.50;99.90
20829;DHT22;10575;50.124;8.582;2023-04-10T04:48:01;5.50;99.90
20829;DHT22;10575;50.124;8.582;2023-04-10T04:50:26;5.50;99.90
20829;DHT22;10575;50.124;8.582;2023-04-10T04:52:52;5.50;99.90
20829;DHT22;10575;50.124;8.582;2023-04-10T04:55:17;5.60;99.90
20829;DHT22;10575;50.124;8.582;2023-04-10T04:57:43;5.60;99.90
20829;DHT22;10575;50.124;8.582;2023-04-10T05:00:08;5.50;99.90
20829;DHT22;10575;50.124;8.582;2023-04-10T05:02:34;5.50;99.90
20829;DHT22;10575;50.124;8.582;2023-04-10T05:05:00;5.60;99.90
20829;DHT22;10575;50.124;8.582;2023-04-10T05:07:25;5.60;99.90
20829;DHT22;10575;50.124;8.582;2023-04-10T05:09:51;5.60;99.90
20829;DHT22;10575;50.124;8.582;2023-04-10T05:12:16;5.70;99.90
20829;DHT22;10575;50.124;8.582;2023-04-10T05:14:42;5.70;99.90
20829;DHT22;10575;50.124;8.582;2023-04-10T05:17:07;5.70;99.90
20829;DHT22;10575;50.124;8.582;2023-04-10T05:19:33;5.80;99.90
20829;DHT22;10575;50.124;8.582;2023-04-10T05:21:58;5.80;99.90
20829;DHT22;10575;50.124;8.582;2023-04-10T05:24:24;5.90;99.90
20829;DHT22;10575;50.124;8.582;2023-04-10T05:26:49;5.90;99.90
20829;DHT22;10575;50.124;8.582;2023-04-10T05:29:15;6.00;99.90
20829;DHT22;10575;50.124;8.582;2023-04-10T05:31:40;6.00;99.90
20829;DHT22;10575;50.124;8.582;2023-04-10T05:34:06;6.00;99.90
20829;DHT22;10575;50.124;8.582;2023-04-10T05:36:31;6.10;99.90
20829;DHT22;10575;50.124;8.582;2023-04-10T05:38:57;6.10;99.90
20829;DHT22;10575;50.124;8.582;2023-04-10T05:41:22;6.30;99.90
20829;DHT22;10575;50.124;8.582;2023-04-10T05:43:48;6.40;99.90
20829;DHT22;10575;50.124;8.582;2023-04-10T05:46:14;6.60;99.90
20829;DHT22;10575;50.124;8.582;2023-04-10T05:48:39;6.70;99.90
20829;DHT22;10575;50.124;8.582;2023-04-10T05:51:05;6.80;99.90
20829;DHT22;10575;50.124;8.582;2023-04-10T05:53:31;6.90;99.90
20829;DHT22;10575;50.124;8.582;2023-04-10T05:55:57;6.90;99.90
20829;DHT22;10575;50.124;8.582;2023-04-10T05:58:27;7.00;99.90
20829;DHT22;10575;50.124;8.582;2023-04-10T06:00:53;7.10;99.90
20829;DHT22;10575;50.124;8.582;2023-04-10T06:03:19;7.20;99.90
20829;DHT22;10575;50.124;8.582;2023-04-10T06:05:45;7.20;99.90
20829;DHT22;10575;50.124;8.582;2023-04-10T06:08:10;7.30;99.90
20829;DHT22;10575;50.124;8.582;2023-04-10T06:10:36;7.20;99.90
20829;DHT22;10575;50.124;8.582;2023-04-10T06:13:01;7.20;99.90
20829;DHT22;10575;50.124;8.582;2023-04-10T06:15:27;7.30;99.90
20829;DHT22;10575;50.124;8.582;2023-04-10T06:17:53;7.50;99.90
20829;DHT22;10575;50.124;8.582;2023-04-10T06:20:19;7.80;99.90
20829;DHT22;10575;50.124;8.582;2023-04-10T06:22:45;8.20;99.90
20829;DHT22;10575;50.124;8.582;2023-04-10T06:25:11;8.70;99.90
20829;DHT22;10575;50.124;8.582;2023-04-10T06:27:37;9.20;99.90
20829;DHT22;10575;50.124;8.582;2023-04-10T06:30:02;9.70;99.90
20829;DHT22;10575;50.124;8.582;2023-04-10T06:32:28;9.90;99.90
20829;DHT22;10575;50.124;8.582;2023-04-10T06:34:54;9.90;99.90
20829;DHT22;10575;50.124;8.582;2023-04-10T06:37:26;9.90;99.90
20829;DHT22;10575;50.124;8.582;2023-04-10T06:40:04;10.50;99.90
20829;DHT22;10575;50.124;8.582;2023-04-10T06:42:30;11.00;99.90
20829;DHT22;10575;50.124;8.582;2023-04-10T06:44:55;11.30;99.90
20829;DHT22;10575;50.124;8.582;2023-04-10T06:47:21;11.40;99.90
20829;DHT22;10575;50.124;8.582;2023-04-10T06:49:46;11.40;99.90
20829;DHT22;10575;50.124;8.582;2023-04-10T06:52:12;11.20;99.90
20829;DHT22;10575;50.124;8.582;2023-04-10T06:54:37;11.40;99.90
20829;DHT22;10575;50.124;8.582;2023-04-10T06:57:03;11.60;99.90
20829;DHT22;10575;50.124;8.582;2023-04-10T06:59:29;12.20;99.90
20829;DHT22;10575;50.124;8.582;2023-04-10T07:01:55;13.10;99.90
20829;DHT22;10575;50.124;8.582;2023-04-10T07:04:21;14.30;99.90
20829;DHT22;10575;50.124;8.582;2023-04-10T07:06:46;15.20;99.90
20829;DHT22;10575;50.124;8.582;2023-04-10T07:09:13;16.10;99.90
20829;DHT22;10575;50.124;8.582;2023-04-10T07:11:38;17.20;99.90
20829;DHT22;10575;50.124;8.582;2023-04-10T07:14:03;18.10;99.90
20829;DHT22;10575;50.124;8.582;2023-04-10T07:16:29;18.30;99.90
20829;DHT22;10575;50.124;8.582;2023-04-10T07:18:55;19.00;97.60
20829;DHT22;10575;50.124;8.582;2023-04-10T07:21:20;19.00;96.80
20829;DHT22;10575;50.124;8.582;2023-04-10T07:23:46;18.70;95.60
20829;DHT22;10575;50.124;8.582;2023-04-10T07:26:12;18.60;96.00
20829;DHT22;10575;50.124;8.582;2023-04-10T07:28:37;18.70;95.20
20829;DHT22;10575;50.124;8.582;2023-04-10T07:31:03;19.50;95.40
20829;DHT22;10575;50.124;8.582;2023-04-10T07:33:28;20.00;92.70
20829;DHT22;10575;50.124;8.582;2023-04-10T07:35:54;21.00;92.40
20829;DHT22;10575;50.124;8.582;2023-04-10T07:38:19;21.30;91.10
20829;DHT22;10575;50.124;8.582;2023-04-10T07:40:45;21.00;87.50
20829;DHT22;10575;50.124;8.582;2023-04-10T07:43:11;21.40;85.00
20829;DHT22;10575;50.124;8.582;2023-04-10T07:45:36;21.30;83.20
20829;DHT22;10575;50.124;8.582;2023-04-10T07:48:02;21.70;82.50
20829;DHT22;10575;50.124;8.582;2023-04-10T07:50:28;23.40;76.40
20829;DHT22;10575;50.124;8.582;2023-04-10T07:52:54;25.00;71.10
20829;DHT22;10575;50.124;8.582;2023-04-10T07:55:20;26.50;61.80
20829;DHT22;10575;50.124;8.582;2023-04-10T07:57:46;27.50;56.20
20829;DHT22;10575;50.124;8.582;2023-04-10T08:00:12;28.90;51.70
20829;DHT22;10575;50.124;8.582;2023-04-10T08:02:38;30.00;47.40
20829;DHT22;10575;50.124;8.582;2023-04-10T08:05:06;30.10;47.00
20829;DHT22;10575;50.124;8.582;2023-04-10T08:07:31;31.20;43.70
20829;DHT22;10575;50.124;8.582;2023-04-10T08:09:57;31.90;43.60
20829;DHT22;10575;50.124;8.582;2023-04-10T08:12:22;33.30;39.30
20829;DHT22;10575;50.124;8.582;2023-04-10T08:14:50;33.50;38.00
20829;DHT22;10575;50.124;8.582;2023-04-10T08:17:16;35.10;34.90
20829;DHT22;10575;50.124;8.582;2023-04-10T08:19:42;35.70;33.90
20829;DHT22;10575;50.124;8.582;2023-04-10T08:22:07;37.80;30.20
20829;DHT22;10575;50.124;8.582;2023-04-10T08:24:33;37.80;29.30
20829;DHT22;10575;50.124;8.582;2023-04-10T08:27:00;37.80;28.80
20829;DHT22;10575;50.124;8.582;2023-04-10T08:29:25;35.90;29.60
20829;DHT22;10575;50.124;8.582;2023-04-10T08:31:51;36.60;29.20
20829;DHT22;10575;50.124;8.582;2023-04-10T08:34:16;37.30;29.70
20829;DHT22;10575;50.124;8.582;2023-04-10T08:36:42;36.80;29.10
20829;DHT22;10575;50.124;8.582;2023-04-10T08:39:07;36.40;28.10
20829;DHT22;10575;50.124;8.582;2023-04-10T08:41:33;37.20;28.00
20829;DHT22;10575;50.124;8.582;2023-04-10T08:43:58;38.30;28.00
20829;DHT22;10575;50.124;8.582;2023-04-10T08:46:25;37.30;27.00
20829;DHT22;10575;50.124;8.582;2023-04-10T08:49:01;37.20;27.50
20829;DHT22;10575;50.124;8.582;2023-04-10T08:51:42;39.10;25.90
20829;DHT22;10575;50.124;8.582;2023-04-10T08:54:48;38.80;26.30
20829;DHT22;10575;50.124;8.582;2023-04-10T08:57:14;39.80;24.80
20829;DHT22;10575;50.124;8.582;2023-04-10T08:59:48;39.70;24.70
20829;DHT22;10575;50.124;8.582;2023-04-10T09:02:13;40.30;24.40
20829;DHT22;10575;50.124;8.582;2023-04-10T09:04:47;40.20;24.30
20829;DHT22;10575;50.124;8.582;2023-04-10T09:07:16;38.70;24.80
20829;DHT22;10575;50.124;8.582;2023-04-10T09:09:42;37.70;25.70
20829;DHT22;10575;50.124;8.582;2023-04-10T09:12:11;37.70;25.70
20829;DHT22;10575;50.124;8.582;2023-04-10T09:14:39;37.10;25.70
20829;DHT22;10575;50.124;8.582;2023-04-10T09:17:22;37.70;25.30
20829;DHT22;10575;50.124;8.582;2023-04-10T09:19:51;36.30;26.70
20829;DHT22;10575;50.124;8.582;2023-04-10T09:22:27;36.80;26.40
20829;DHT22;10575;50.124;8.582;2023-04-10T09:24:53;37.40;25.70
20829;DHT22;10575;50.124;8.582;2023-04-10T09:29:56;36.30;25.40
20829;DHT22;10575;50.124;8.582;2023-04-10T09:32:49;34.30;27.60
20829;DHT22;10575;50.124;8.582;2023-04-10T09:35:14;30.70;30.10
20829;DHT22;10575;50.124;8.582;2023-04-10T09:37:44;28.60;33.70
20829;DHT22;10575;50.124;8.582;2023-04-10T09:40:22;26.80;35.30
20829;DHT22;10575;50.124;8.582;2023-04-10T09:42:51;25.30;37.60
20829;DHT22;10575;50.124;8.582;2023-04-10T09:45:17;23.50;41.30
20829;DHT22;10575;50.124;8.582;2023-04-10T09:48:04;22.40;42.40
20829;DHT22;10575;50.124;8.582;2023-04-10T09:50:37;22.30;43.70
20829;DHT22;10575;50.124;8.582;2023-04-10T09:53:03;22.50;43.30
20829;DHT22;10575;50.124;8.582;2023-04-10T09:55:29;22.30;44.90
20829;DHT22;10575;50.124;8.582;2023-04-10T09:57:55;22.30;44.50
20829;DHT22;10575;50.124;8.582;2023-04-10T10:00:22;22.20;43.90
20829;DHT22;10575;50.124;8.582;2023-04-10T10:02:48;21.60;44.60
20829;DHT22;10575;50.124;8.582;2023-04-10T10:05:14;21.30;46.00
20829;DHT22;10575;50.124;8.582;2023-04-10T10:07:42;21.30;46.40
20829;DHT22;10575;50.124;8.582;2023-04-10T10:10:19;21.40;46.20
20829;DHT22;10575;50.124;8.582;2023-04-10T10:12:48;21.10;46.50
20829;DHT22;10575;50.124;8.582;2023-04-10T10:15:22;21.00;47.50
20829;DHT22;10575;50.124;8.582;2023-04-10T10:20:33;20.20;47.90
20829;DHT22;10575;50.124;8.582;2023-04-10T10:23:01;20.20;50.30
20829;DHT22;10575;50.124;8.582;2023-04-10T10:25:27;20.50;51.60
20829;DHT22;10575;50.124;8.582;2023-04-10T10:27:54;20.60;48.50
20829;DHT22;10575;50.124;8.582;2023-04-10T10:30:20;20.60;48.90
20829;DHT22;10575;50.124;8.582;2023-04-10T10:32:47;20.60;49.50
20829;DHT22;10575;50.124;8.582;2023-04-10T10:35:13;20.50;48.10
20829;DHT22;10575;50.124;8.582;2023-04-10T10:37:39;20.20;48.00
20829;DHT22;10575;50.124;8.582;2023-04-10T10:40:18;19.70;49.00
20829;DHT22;10575;50.124;8.582;2023-04-10T10:43:04;19.40;51.40
20829;DHT22;10575;50.124;8.582;2023-04-10T10:45:57;19.20;53.00
20829;DHT22;10575;50.124;8.582;2023-04-10T10:48:25;19.10;52.50
20829;DHT22;10575;50.124;8.582;2023-04-10T10:53:35;19.00;52.50
20829;DHT22;10575;50.124;8.582;2023-04-10T10:58:53;18.90;52.60
20829;DHT22;10575;50.124;8.582;2023-04-10T11:01:22;18.90;53.40
20829;DHT22;10575;50.124;8.582;2023-04-10T11:03:48;19.10;52.40
20829;DHT22;10575;50.124;8.582;2023-04-10T11:06:15;19.00;52.30
20829;DHT22;10575;50.124;8.582;2023-04-10T11:08:45;18.80;52.50
20829;DHT22;10575;50.124;8.582;2023-04-10T11:19:07;18.70;53.50
20829;DHT22;10575;50.124;8.582;2023-04-10T11:21:34;18.80;52.80
20829;DHT22;10575;50.124;8.582;2023-04-10T11:31:43;18.90;52.00
20829;DHT22;10575;50.124;8.582;2023-04-10T11:34:09;19.10;51.90
20829;DHT22;10575;50.124;8.582;2023-04-10T11:36:38;19.10;51.00
20829;DHT22;10575;50.124;8.582;2023-04-10T11:39:07;19.10;48.50
20829;DHT22;10575;50.124;8.582;2023-04-10T11:41:43;19.20;47.50
20829;DHT22;10575;50.124;8.582;2023-04-10T11:44:15;19.30;47.70
20829;DHT22;10575;50.124;8.582;2023-04-10T11:46:44;19.30;47.00
20829;DHT22;10575;50.124;8.582;2023-04-10T11:49:20;19.40;47.50
20829;DHT22;10575;50.124;8.582;2023-04-10T11:51:48;19.50;47.40
20829;DHT22;10575;50.124;8.582;2023-04-10T11:54:24;19.60;46.80
20829;DHT22;10575;50.124;8.582;2023-04-10T11:57:02;19.70;47.70
20829;DHT22;10575;50.124;8.582;2023-04-10T11:59:29;19.90;47.00
20829;DHT22;10575;50.124;8.582;2023-04-10T12:02:06;20.20;48.40
20829;DHT22;10575;50.124;8.582;2023-04-10T12:04:32;20.30;46.40
20829;DHT22;10575;50.124;8.582;2023-04-10T12:06:58;20.50;46.90
20829;DHT22;10575;50.124;8.582;2023-04-10T12:09:23;20.60;45.00
20829;DHT22;10575;50.124;8.582;2023-04-10T12:14:16;20.60;42.50
20829;DHT22;10575;50.124;8.582;2023-04-10T12:16:42;20.70;44.00
20829;DHT22;10575;50.124;8.582;2023-04-10T12:19:08;20.90;44.40
20829;DHT22;10575;50.124;8.582;2023-04-10T12:21:38;20.90;45.80
20829;DHT22;10575;50.124;8.582;2023-04-10T12:24:04;20.90;44.90
20829;DHT22;10575;50.124;8.582;2023-04-10T12:26:30;20.80;45.50
20829;DHT22;10575;50.124;8.582;2023-04-10T12:28:56;20.90;45.40
20829;DHT22;10575;50.124;8.582;2023-04-10T12:31:27;21.10;46.50
20829;DHT22;10575;50.124;8.582;2023-04-10T12:33:53;21.20;45.70
20829;DHT22;10575;50.124;8.582;2023-04-10T12:36:23;21.20;44.50
20829;DHT22;10575;50.124;8.582;2023-04-10T12:38:48;21.20;42.90
20829;DHT22;10575;50.124;8.582;2023-04-10T12:41:21;21.00;44.10
20829;DHT22;10575;50.124;8.582;2023-04-10T12:43:47;20.80;41.50
20829;DHT22;10575;50.124;8.582;2023-04-10T12:46:25;20.80;44.90
20829;DHT22;10575;50.124;8.582;2023-04-10T12:48:51;20.70;43.80
20829;DHT22;10575;50.124;8.582;2023-04-10T12:51:17;20.70;46.10
20829;DHT22;10575;50.124;8.582;2023-04-10T12:53:43;20.70;46.60
20829;DHT22;10575;50.124;8.582;2023-04-10T12:56:10;20.80;45.20
20829;DHT22;10575;50.124;8.582;2023-04-10T12:58:37;20.60;44.80
20829;DHT22;10575;50.124;8.582;2023-04-10T13:01:04;20.60;44.10
20829;DHT22;10575;50.124;8.582;2023-04-10T13:03:32;20.60;43.40
20829;DHT22;10575;50.124;8.582;2023-04-10T13:05:58;20.80;43.30
20829;DHT22;10575;50.124;8.582;2023-04-10T13:08:23;20.80;45.00
20829;DHT22;10575;50.124;8.582;2023-04-10T13:10:49;20.80;43.10
20829;DHT22;10575;50.124;8.582;2023-04-10T13:13:15;20.80;44.00
20829;DHT22;10575;50.124;8.582;2023-04-10T13:15:41;20.80;46.20
20829;DHT22;10575;50.124;8.582;2023-04-10T13:18:07;20.70;45.20
20829;DHT22;10575;50.124;8.582;2023-04-10T13:20:39;20.60;45.30
20829;DHT22;10575;50.124;8.582;2023-04-10T13:23:06;20.70;45.70
20829;DHT22;10575;50.124;8.582;2023-04-10T13:25:39;20.70;46.10
20829;DHT22;10575;50.124;8.582;2023-04-10T13:28:06;20.90;45.80
20829;DHT22;10575;50.124;8.582;2023-04-10T13:30:40;21.00;43.30
20829;DHT22;10575;50.124;8.582;2023-04-10T13:33:06;21.00;44.20
20829;DHT22;10575;50.124;8.582;2023-04-10T13:35:32;21.00;44.50
20829;DHT22;10575;50.124;8.582;2023-04-10T13:37:58;20.90;46.10
20829;DHT22;10575;50.124;8.582;2023-04-10T13:40:24;20.70;48.50
20829;DHT22;10575;50.124;8.582;2023-04-10T13:42:50;20.60;47.40
20829;DHT22;10575;50.124;8.582;2023-04-10T13:45:15;20.40;46.50
20829;DHT22;10575;50.124;8.582;2023-04-10T13:47:42;20.50;48.20
20829;DHT22;10575;50.124;8.582;2023-04-10T13:50:08;20.50;47.80
20829;DHT22;10575;50.124;8.582;2023-04-10T13:52:33;20.70;47.50
20829;DHT22;10575;50.124;8.582;2023-04-10T13:54:59;20.80;47.00
20829;DHT22;10575;50.124;8.582;2023-04-10T13:57:25;20.90;46.00
20829;DHT22;10575;50.124;8.582;2023-04-10T13:59:50;20.80;46.30
20829;DHT22;10575;50.124;8.582;2023-04-10T14:02:16;20.80;46.10
20829;DHT22;10575;50.124;8.582;2023-04-10T14:04:41;20.80;47.20
20829;DHT22;10575;50.124;8.582;2023-04-10T14:07:10;20.80;47.20
20829;DHT22;10575;50.124;8.582;2023-04-10T14:09:36;20.90;45.60
20829;DHT22;10575;50.124;8.582;2023-04-10T14:12:02;20.80;44.70
20829;DHT22;10575;50.124;8.582;2023-04-10T14:14:27;20.60;47.40
20829;DHT22;10575;50.124;8.582;2023-04-10T14:16:53;20.70;46.60
20829;DHT22;10575;50.124;8.582;2023-04-10T14:19:19;20.70;45.20
20829;DHT22;10575;50.124;8.582;2023-04-10T14:21:44;20.60;45.00
20829;DHT22;10575;50.124;8.582;2023-04-10T14:24:10;20.50;45.80
20829;DHT22;10575;50.124;8.582;2023-04-10T14:26:36;20.40;46.30
20829;DHT22;10575;50.124;8.582;2023-04-10T14:29:01;20.30;45.40
20829;DHT22;10575;50.124;8.582;2023-04-10T14:31:27;20.20;45.10
20829;DHT22;10575;50.124;8.582;2023-04-10T14:33:52;20.00;45.50
20829;DHT22;10575;50.124;8.582;2023-04-10T14:36:18;19.90;44.30
20829;DHT22;10575;50.124;8.582;2023-04-10T14:38:44;19.90;45.10
20829;DHT22;10575;50.124;8.582;2023-04-10T14:41:09;19.90;45.30
20829;DHT22;10575;50.124;8.582;2023-04-10T14:43:36;19.90;44.40
20829;DHT22;10575;50.124;8.582;2023-04-10T14:46:01;19.80;45.20
20829;DHT22;10575;50.124;8.582;2023-04-10T14:48:27;19.70;44.90
20829;DHT22;10575;50.124;8.582;2023-04-10T14:50:52;19.60;45.10
20829;DHT22;10575;50.124;8.582;2023-04-10T14:53:19;19.60;43.30
20829;DHT22;10575;50.124;8.582;2023-04-10T14:55:47;19.50;44.30
20829;DHT22;10575;50.124;8.582;2023-04-10T14:58:13;19.50;44.40
20829;DHT22;10575;50.124;8.582;2023-04-10T15:00:38;19.50;44.10
20829;DHT22;10575;50.124;8.582;2023-04-10T15:03:04;19.40;43.40
20829;DHT22;10575;50.124;8.582;2023-04-10T15:05:30;19.40;42.80
20829;DHT22;10575;50.124;8.582;2023-04-10T15:07:56;19.40;43.80
20829;DHT22;10575;50.124;8.582;2023-04-10T15:10:22;19.40;44.80
20829;DHT22;10575;50.124;8.582;2023-04-10T15:12:47;19.40;42.70
20829;DHT22;10575;50.124;8.582;2023-04-10T15:15:13;19.30;43.20
20829;DHT22;10575;50.124;8.582;2023-04-10T15:17:38;19.30;42.50
20829;DHT22;10575;50.124;8.582;2023-04-10T15:20:04;19.30;42.60
20829;DHT22;10575;50.124;8.582;2023-04-10T15:22:30;19.30;45.00
20829;DHT22;10575;50.124;8.582;2023-04-10T15:24:55;19.30;44.50
20829;DHT22;10575;50.124;8.582;2023-04-10T15:27:21;19.30;44.10
20829;DHT22;10575;50.124;8.582;2023-04-10T15:29:47;19.30;45.10
20829;DHT22;10575;50.124;8.582;2023-04-10T15:32:13;19.30;45.30
20829;DHT22;10575;50.124;8.582;2023-04-10T15:34:38;19.30;45.60
20829;DHT22;10575;50.124;8.582;2023-04-10T15:37:04;19.40;45.00
20829;DHT22;10575;50.124;8.582;2023-04-10T15:39:29;19.50;46.00
20829;DHT22;10575;50.124;8.582;2023-04-10T15:41:55;19.50;44.20
20829;DHT22;10575;50.124;8.582;2023-04-10T15:44:22;19.40;44.00
20829;DHT22;10575;50.124;8.582;2023-04-10T15:46:48;19.40;45.70
20829;DHT22;10575;50.124;8.582;2023-04-10T15:49:14;19.30;45.90
20829;DHT22;10575;50.124;8.582;2023-04-10T15:51:40;19.30;46.70
20829;DHT22;10575;50.124;8.582;2023-04-10T15:54:06;19.30;46.90
20829;DHT22;10575;50.124;8.582;2023-04-10T15:56:33;19.40;46.30
20829;DHT22;10575;50.124;8.582;2023-04-10T15:58:59;19.50;46.00
20829;DHT22;10575;50.124;8.582;2023-04-10T16:01:24;19.60;45.90
20829;DHT22;10575;50.124;8.582;2023-04-10T16:03:50;19.70;46.30
20829;DHT22;10575;50.124;8.582;2023-04-10T16:06:15;19.60;44.70
20829;DHT22;10575;50.124;8.582;2023-04-10T16:08:41;19.40;45.80
20829;DHT22;10575;50.124;8.582;2023-04-10T16:11:07;19.30;46.00
20829;DHT22;10575;50.124;8.582;2023-04-10T16:13:32;19.20;46.50
20829;DHT22;10575;50.124;8.582;2023-04-10T16:15:58;19.10;46.40